< Cyclone 201106 2011 Season Cyclone 201110 >
Cyclone 201109 (Vince)
General InformationTrack Information on Google MapsDetailed Wind InformationList of All Images || ResourceGoogle EarthGE AnimationAtom FeedGeoJSON
Detalied Best Track (Time Zone = UTC)
Year Month Day Hour Lat. Long. Pressure (hPa) Wind (kt) Class Image Chart
2011 1 9 06 -15.0 112.8 996 25 2 Image --
2011 1 9 12 -15.1 112.9 996 25 2 Image --
2011 1 9 18 -15.1 113.0 996 25 2 Image --
2011 1 10 00 -15.1 112.3 996 25 2 Image --
2011 1 10 06 -15.1 111.7 995 25 2 Image --
2011 1 10 12 -15.0 110.7 995 25 2 Image --
2011 1 10 18 -15.1 109.5 994 30 2 Image --
2011 1 11 00 -14.9 108.6 993 30 2 Image --
2011 1 11 06 -14.9 108.1 990 30 2 Image --
2011 1 11 12 -14.8 107.7 990 30 2 Image --
2011 1 11 18 -14.9 107.0 990 35 3 Image --
2011 1 12 00 -14.9 107.3 990 35 3 Image --
2011 1 12 06 -14.9 107.5 990 35 3 Image --
2011 1 12 12 -15.3 108.0 990 35 3 Image --
2011 1 12 18 -15.7 107.8 990 35 3 Image --
2011 1 13 00 -15.7 108.0 986 40 3 Image --
2011 1 13 06 -15.8 109.2 993 35 3 Image --
2011 1 13 12 -15.7 110.4 994 30 2 Image --
2011 1 13 18 -16.0 111.6 996 30 2 Image --
2011 1 14 00 -16.2 112.5 997 30 2 Image --
2011 1 14 06 -16.2 113.5 997 30 2 Image --
2011 1 14 12 -16.0 114.4 997 30 2 Image --
2011 1 14 18 -15.7 114.7 997 30 2 Image --
2011 1 15 00 -15.5 114.5 997 30 2 Image --
2011 1 15 06 -15.5 114.2 997 30 2 Image --
2011 1 15 12 -15.8 114.1 997 30 2 Image --
2011 1 15 18 -15.6 113.4 997 30 2 Image --
2011 1 16 00 -15.9 113.2 997 25 2 Image --
2011 1 16 06 -16.1 112.5 997 25 2 Image --
2011 1 16 12 -15.8 112.2 997 20 2 Image --
< Cyclone 201106 2011 Season Cyclone 201110 >

Help